Aeroporto :
LOGIN :

Iscrizione | Disclaimer

   EN    FR    IT 

 










Sommario :    VFR   VFR Marginale   IFR   IFR Intensivo   IFR Molto Intensivo
Visibilità : 
Base nubi : 
>= 8 km
>= 3000ft
5 / 8 km
1000 / 3000 ft
1500m / 5 km
500 / 1000 ft
800 / 1500m
200 / 500 ft
< 800m
< 200 ft
Simboli :   Temporali  Nebbia  Neve Forte  Precipitazioni Forti  Vento > 20 kt
SIGMETs :   Varie  Temporali  Ghiacco  Turbolenza  Onda orograficha  Ceneri Vulcaniche






- Altitudine del aeroporto : 1966 ft
- Codice IATA : SGE


EDGS - Siegerland

ULTIMO METAR :
  • 181120Z 32006KT 290V010 CAVOK 31/17 Q1016

METARs OBSOLETI :
  • 181050Z 32006KT 270V350 CAVOK 31/16 Q1016
  • 181020Z 32008KT 270V010 CAVOK 30/17 Q1016
  • 180950Z 34005KT 280V020 CAVOK 30/17 Q1016
  • 180920Z 29006KT 250V330 CAVOK 29/16 Q1016
  • 180850Z 33009KT CAVOK 29/16 Q1016

TAF TAF EDGS
Valido dal 18 a 12 ore il 18 a 21 ore UTC


181100Z 1812/1821 31005KT CAVOK
BECMG 1812/1814 23006KT
PROB30
TEMPO 1812/1818 20020G45KT 2500 +TSRAGR SCT030CB



MetMap, La meteo Aeronautica in un colpo d'occhio ! - Copyright ORBIFLY Dicembre 2007 - Disclaimer

ORBIFLY MET'MAP TEAM :

Programmazione e sviluppo : Alexandra Zaïnal
Concezione : Baudouin d'Aumeries
Aiuto per la programmazione : Marc-Olivier Méhu
Supporto tecnico e logistico : Manuel Goepfert
Aiuto per la traduzione : Arnaldo La Scala

Contatto : metmap@orbifly.com




FONTI E CREDITI :

   NOAA